NCAR-RAP Real-Time Weather Data

Output produced by METARs form (10 April 2020  07:22 UTC)
found at http://weather.rap.ucar.edu/surface/
 
KLGA 100651Z 26018G24KT 10SM SCT100 OVC130 06/M01 A2933 RMK AO2 PK WND 26026/0552 SLP932 T00611011